Alice Springs Airport
YBAS : now visible

Airfield :











YOU CAN JOIN US ON...

 
LOGIN :

Register | Disclaimer

   EN    FR    IT 

 









Legend :    VFR   Marginal VFR   IFR   Intensive IFR   Very Intensive IFR
Visi :
Ceiling :
>= 8 km
>= 3000ft
5 to 8 km
1000 to 3000 ft
1500m to 5 km
500 to 1000 ft
800 to 1500m
200 to 500 ft
< 800m
< 200 ft
Symbols :   Thunderstorms  Fog  Heavy snow  Heavy precipitations  Wind > 20 kt






- Airport Elevation : 1789 ft
- IATA code : ASP


YBAS - Alice Springs

CURRENT METAR :
  • 270500Z AUTO 10011G23KT 9999 // NCD 37/05 Q1011 RF00.0/000.0

EXPIRED METARs :
  • 270430Z AUTO 11016KT 050V110 9999 // NCD 37/05 Q1011 RF00.0/000.0
  • 270400Z AUTO 06013KT 9999 // NCD 37/06 Q1012
  • 270330Z AUTO 08014KT 9999 // NCD 37/06 Q1012 RF00.0/000.0
  • 270300Z AUTO 06011G23KT 9999 // NCD 37/06 Q1013
  • 270230Z AUTO 09016KT 9999 // NCD 36/06 Q1013 RF00.0/000.0

TAF AMD TAF YBAS
Valid from the 27 at 02:00 until the 28 at 00:00 UTC


270211Z 2702/2800 07015KT CAVOK
FM271000 13008KT CAVOK



MET'MAP, your aeronautical weather chart ! - Copyright ORBIFLY December 2007 - Disclaimer

ORBIFLY MET'MAP TEAM :

Programming & Development : Alexandra Zaïnal
Concept & original design : Baudouin d'Aumeries
Assistance for programming : Marc-Olivier Méhu
Technical & hardware support : Manuel Goepfert

Contact : metmap@orbifly.com




SOURCES & CREDITS :

   NOAA       Earth
Advisory